Hoppa till innehåll

METAR väder och rapporter - EHAM

Nedan listas information från vald flygplats. Andra METARs finns längre ned på sidan. Kontakta oss om någon saknas eller skriv in egen ICAO-kod.

Coded METAR: 2021/12/07 15:25 EHAM 071525Z 15015KT CAVOK 05/02 Q1002 NOSIG

Weather Report @ EHAM

Issued: 7th Dec 2021 at 16:25 CET

Wind: moderate breeze from South-Southeast (150 degrees) at 15 knots (17 mph, 28 kph, 8 mps, Force 4)
Weather: good visibility and no low cloud (ceiling and visibility OK)
Temperature: 41F / 5C
Dewpoint: 36F / 2C
Humidity: 81%
Pressure: 1002 hPa
Weather: no significant change expected

Coded TAF: 2021/12/07 12:27 TAF TAF EHAM 071120Z 0712/0818 18011KT 9999 SCT025 BECMG 0713/0716 15014KT BECMG 0716/0719 15020G30KT -RA FEW017 BKN040 TEMPO 0720/0803 6000 RADZ BKN014 PROB30 TEMPO 0721/0802 4000 DZRA BKN008 BECMG 0723/0802 19016KT 9999 SCT020 PROB30 TEMPO 0802/0805 6000 SHRA SCT018CB BKN020

Weather Forecast @ EHAM

Issued: 7th Dec 2021 at 13:27 CET

Valid : 7th Dec 13:00 until 8th Dec 19:00 CET

13:00 CET
Wind: moderate breeze from the South (180 degrees) at 11 knots (13 mph, 20 kph, 6 mps, Force 4)
Visibility: 10km or more
Cloud: scattered at 2500 feet

14:00 CET to 17:00 CET
becoming:

Wind: moderate breeze from South-Southeast (150 degrees) at 14 knots (16 mph, 26 kph, 7 mps, Force 4)

17:00 CET to 20:00 CET
becoming:

Wind: fresh breeze from South-Southeast (150 degrees) at 20 knots (23 mph, 37 kph, 10 mps, Force 5) gusting to 30 knots (35 mph 56 kph, 15 mps)
Weather: light rain
Cloud: a few clouds at 1700 feet
Cloud: broken at 4000 feet

21:00 CET to 04:00 CET
Occasional

Visibility: 6000 metres
Weather: rain and drizzle
Cloud: broken at 1400 feet

01:00 CET to 01:00 CET
there is a 30% chance of:


22:00 CET to 03:00 CET
Occasional

Visibility: 4000 metres
Cloud: broken at 800 feet

00:00 CET to 03:00 CET
becoming:

Wind: moderate breeze from the South (190 degrees) at 16 knots (18 mph, 30 kph, 8 mps, Force 4)
Visibility: 10km or more
Cloud: scattered at 2000 feet

01:00 CET to 01:00 CET
there is a 30% chance of:


03:00 CET to 06:00 CET
Occasional

Visibility: 6000 metres
Weather: showers of rain
Cloud: scattered at 1800 feet with cumulonimbus
Cloud: broken at 2000 feet

Internet delivery of weather data is not secure or reliable enough for operational purposes.

NEVER RELY ON THE OUTPUT OF THIS SCRIPT TO MAKE DECISIONS ABOUT ANYTHING IN WHICH THE WEATHER FORECAST AND ITS INTERPRETATION COULD BE AN ISSUE OF SAFETY.

Andra intressanta METARs

Klicka på önskad rubrik nedan för att visa nuvarande väder för den platsen.

Avstånd från stationen: NO 27kmESGG - Göteborg (Landvetter)
Uppdaterad: 2021-12-07 15:50
 Vind från OSO
Vind: OSO 19 km/h
Temperatur: -5°C
Vindavkylning: -12°C
Daggpunkt: -7°C
Luftfuktighet: 86%
Barometer: 1012 hPa
Summering: Light Snow
Moln: Genommulet
Sikt: 10 km
Molninformation: Genommulet 1158 m
2021/12/07 14:50 ESGG 071450Z 11010KT 9999 -SN OVC038 M05/M07 Q1012
Light snow, Genommulet
Light snow
Genommulet
  Visa detaljer för Göteborg (Landvetter)
Avstånd från stationen: N 28kmESGP - Göteborg (Säve)
Uppdaterad: 2021-12-07 16:28
 
unable to load ESGP data RC=404 Not Found
unable to load ESGP data RC=404 Not Found
  Visa detaljer för Göteborg (Säve)
Avstånd från stationen: NO 419kmESSA - Stockholm (Arlanda)
Uppdaterad: 2021-12-07 15:50
 Vind från V
Vind: V 4 km/h
Temperatur: -15°C
Daggpunkt: -16°C
Luftfuktighet: 92%
Barometer: 1017 hPa
Summering: Klart
Sikt: mer än 10 km
2021/12/07 14:50 ESSA 071450Z 26002KT CAVOK M15/M16 Q1017 NOSIG
Klart
Klart
  Visa detaljer för Stockholm (Arlanda)
Avstånd från stationen: ONO 404kmESSB - Stockholm (Bromma)
Uppdaterad: 2021-12-07 15:50
 Vind från V
Vind: V 2 km/h
Temperatur: -13°C
Daggpunkt: -14°C
Luftfuktighet: 92%
Barometer: 1018 hPa
Summering: Klart
Sikt: mer än 10 km
2021/12/07 14:50 ESSB 071450Z 26001KT CAVOK M13/M14 Q1018
Klart
Klart
  Visa detaljer för Stockholm (Bromma)
Avstånd från stationen: ONO 323kmESKN - Stockholm (Skavsta)
Uppdaterad: 2021-12-07 15:50
 Vind från NNO
Vind: NNO 6 km/h
Temperatur: -14°C
Daggpunkt: -15°C
Luftfuktighet: 92%
Barometer: 1018 hPa
Summering: Klart
Sikt: mer än 10 km
2021/12/07 14:50 ESKN 071450Z 03003KT CAVOK M14/M15 Q1018
Klart
Klart
  Visa detaljer för Stockholm (Skavsta)
Avstånd från stationen: SSO 238kmESMS - Malmö flygplats (Sturup)
Uppdaterad: 2021-12-07 15:50
 Vind från SO
Vind: SO 17 km/h
Temperatur: 1°C
Vindavkylning: -3°C
Daggpunkt: -5°C
Luftfuktighet: 65%
Barometer: 1013 hPa
Moln: Övervägande molnigt
Sikt: 10 km
Molninformation: Övervägande molnigt 914 m
2021/12/07 14:50 ESMS 071450Z 13009KT 9999 BKN030 01/M05 Q1013
Övervägande molnigt
Övervägande molnigt
  Visa detaljer för Malmö flygplats (Sturup)
Avstånd från stationen: O 382kmESSV - Visby flygplats
Uppdaterad: 2021-12-07 15:50
 Vind från SSO
Vind: SSO 4 km/h
Temperatur: -8°C
Daggpunkt: -8°C
Luftfuktighet: 100%
Barometer: 1017 hPa
Moln: Några få moln
Sikt: 10 km
Molninformation: Några få moln 792 m
2021/12/07 14:50 ESSV 071450Z 15002KT 9999 FEW026 M08/M08 Q1017
Några få moln
Några få moln
  Visa detaljer för Visby flygplats
Avstånd från stationen: NNO 92kmESGT - Trollhättan
Uppdaterad: 2021-12-07 15:50
 Vind från SSO
Vind: SSO 13 km/h
Temperatur: -3°C
Vindavkylning: -7°C
Daggpunkt: -6°C
Luftfuktighet: 80%
Barometer: 1014 hPa
Summering: Light Snow
Moln: Övervägande molnigt
Sikt: 10 km
Molninformation: Övervägande molnigt 1219 m
2021/12/07 14:50 ESGT 071450Z 15007KT 9999 -SN BKN040 M03/M06 Q1014
Light snow, Övervägande molnigt
Light snow
Övervägande molnigt
  Visa detaljer för Trollhättan
Avstånd från stationen: ONO 129kmESGJ - Jönköpings flygplats
Uppdaterad: 2021-12-07 15:50
 Vind från SO
Vind: SO 15 km/h
Temperatur: -5°C
Vindavkylning: -11°C
Daggpunkt: -7°C
Luftfuktighet: 86%
Barometer: 1014 hPa
Summering: Snow Grains
Moln: Övervägande molnigt
Sikt: 10 km
Molninformation: Övervägande molnigt 1006 m
2021/12/07 14:50 ESGJ 071450Z 13008KT 9999 SG BKN033 M05/M07 Q1014 RESG
Snow grains, Övervägande molnigt
Snow grains
Övervägande molnigt
  Visa detaljer för Jönköpings flygplats
Avstånd från stationen: NNO 229kmESOK - Karlstad
Uppdaterad: 2021-12-07 15:50
 Vind från ONO
Vind: ONO 11 km/h
Temperatur: -11°C
Vindavkylning: -17°C
Daggpunkt: -12°C
Luftfuktighet: 92%
Barometer: 1015 hPa
Moln: Övervägande molnigt
Sikt: 10 km
Molninformation: Övervägande molnigt 1311 m
2021/12/07 14:50 ESOK 071450Z 07006KT 9999 BKN043 M11/M12 Q1015
Övervägande molnigt
Övervägande molnigt
  Visa detaljer för Karlstad
Avstånd från stationen: N 643kmESNZ - Östersund (Frösön)
Uppdaterad: 2021-12-07 15:50
 Vind från SO
Vind: SO 22 km/h
Temperatur: -11°C
Vindavkylning: -20°C
Daggpunkt: -14°C
Luftfuktighet: 79%
Barometer: 1010 hPa
Moln: Övervägande molnigt
Sikt: 10 km
Molninformation: Övervägande molnigt 1006 m
2021/12/07 14:50 ESNZ 071450Z 13012KT 9999 BKN033 M11/M14 Q1010
Övervägande molnigt
Övervägande molnigt
  Visa detaljer för Östersund (Frösön)
Avstånd från stationen: SSO 216kmEKCH - Köpenhamn (Kastrup)
Uppdaterad: 2021-12-07 09:20
Ej aktuell
 
2021/12/07 08:20

  Visa detaljer för Köpenhamn (Kastrup)
Avstånd från stationen: SV 263kmEKBI - Billund Airport
Uppdaterad: 2021-12-07 02:20
Ej aktuell
 
2021/12/07 01:20

  Visa detaljer för Billund Airport
Avstånd från stationen: N 302kmENGM - Oslo (Gardermoen)
Uppdaterad: 2021-12-07 15:50
 Vind från NNO
Vind: NNO 7 km/h
Temperatur: -11°C
Vindavkylning: -16°C
Daggpunkt: -13°C
Luftfuktighet: 85%
Barometer: 1014 hPa
Summering: Skurar i närheten
Moln: Övervägande molnigt
Sikt: 10 km
Molninformation: Några få moln 183 m
Övervägande molnigt 366 m
2021/12/07 14:50 ENGM 071450Z 02004KT 9999 VCSH FEW006 BKN012 M11/M13 Q1014 NOSIG
Nearby showers, Övervägande molnigt
Nearby showers
Övervägande molnigt
  Visa detaljer för Oslo (Gardermoen)
Avstånd från stationen: NO 540kmEFMA - Mariehamn / Åland
Uppdaterad: 2021-12-07 15:50
 Vind från N
Vind: N 4 km/h
Temperatur: -15°C
Daggpunkt: -17°C
Luftfuktighet: 85%
Barometer: 1018 hPa
Summering: Klart
Sikt: mer än 10 km
2021/12/07 14:50 EFMA 071450Z AUTO 36002KT CAVOK M15/M17 Q1018
Klart
Klart
  Visa detaljer för Mariehamn / Åland
Avstånd från stationen: S 558kmEDDT - Berlin (Tegel), Germany
Uppdaterad: 2021-12-07 16:28
 
unable to load EDDT data RC=404 Not Found
unable to load EDDT data RC=404 Not Found
  Visa detaljer för Berlin (Tegel), Germany
Avstånd från stationen: SV 737kmEHAM - Amsterdam (Schiphol)
Uppdaterad: 2021-12-07 15:55
 Vind från SSO
Vind: SSO 22 km/h
Temperatur: 5°C
Vindavkylning: 1°C
Daggpunkt: 2°C
Luftfuktighet: 81%
Barometer: 1003 hPa
Summering: Klart
Sikt: mer än 10 km
2021/12/07 14:55 EHAM 071455Z 15012KT CAVOK 05/02 Q1003 NOSIG
Klart
Klart
  Visa detaljer för Amsterdam (Schiphol)
Avstånd från stationen: ONO 808kmEFHK - Helsingfors (Vantaa)
Uppdaterad: 2021-12-07 15:50
 Vind från NNV
Vind: NNV 7 km/h
Temperatur: -17°C
Vindavkylning: -23°C
Daggpunkt: -19°C
Luftfuktighet: 85%
Barometer: 1017 hPa
Moln: Övervägande molnigt
Sikt: 10 km
Molninformation: Övervägande molnigt 1341 m
2021/12/07 14:50 EFHK 071450Z 34004KT 9999 BKN044 M17/M19 Q1017 NOSIG
Övervägande molnigt
Övervägande molnigt
  Visa detaljer för Helsingfors (Vantaa)
Avstånd från stationen: SSV 537kmEDDW - Bremen
Uppdaterad: 2021-12-07 15:50
 Vind från SSO
Vind: SSO 13 km/h
Temperatur: 4°C
Vindavkylning: 1°C
Daggpunkt: 3°C
Luftfuktighet: 93%
Barometer: 1007 hPa
Moln: Övervägande molnigt
Sikt: 8 km
Molninformation: Övervägande molnigt 396 m
2021/12/07 14:50 EDDW 071450Z 15007KT 8000 BKN013 04/03 Q1007 TEMPO BKN009
Övervägande molnigt
Övervägande molnigt
  Visa detaljer för Bremen
Avstånd från stationen: SSV 861kmEDDF - Frankfurt am Main
Uppdaterad: 2021-12-07 15:50
 Vind från S
Vind: S 7 km/h
Temperatur: 5°C
Vindavkylning: 3°C
Daggpunkt: 0°C
Luftfuktighet: 70%
Barometer: 1010 hPa
Moln: Delvis molnigt
Sikt: 10 km
Molninformation: Några få moln 792 m
Delvis molnigt 1128 m
2021/12/07 14:50 EDDF 071450Z 17004KT 9999 FEW026 SCT037 05/M00 Q1010 NOSIG
Delvis molnigt
Delvis molnigt
  Visa detaljer för Frankfurt am Main
Avstånd från stationen: SV 880kmEBBR - Bryssel international
Uppdaterad: 2021-12-07 15:50
 Vind från S
Vind: S 30 km/h
Vindby: 50 km/h
Temperatur: 5°C
Vindavkylning: 0°C
Daggpunkt: 1°C
Luftfuktighet: 76%
Barometer: 1003 hPa
Moln: Några få moln
Sikt: 10 km
Molninformation: Några få moln 549 m
2021/12/07 14:50 EBBR 071450Z 17016G27KT 9999 FEW018 05/01 Q1003 NOSIG
Några få moln
Några få moln
  Visa detaljer för Bryssel international
Avstånd från stationen: SV 738kmEHAM - Amsterdam (Schiphol)
Uppdaterad: 2021-12-07 15:55
 Vind från SSO
Vind: SSO 22 km/h
Temperatur: 5°C
Vindavkylning: 1°C
Daggpunkt: 2°C
Luftfuktighet: 81%
Barometer: 1003 hPa
Summering: Klart
Sikt: mer än 10 km
2021/12/07 14:55 EHAM 071455Z 15012KT CAVOK 05/02 Q1003 NOSIG
Klart
Klart
  Visa detaljer för Amsterdam (Schiphol)
Avstånd från stationen: SV 1044kmEGLL - London (Heathrow)
Uppdaterad: 2021-12-07 13:50
Ej aktuell
 Vind från SSO
Vind: SSO 26 km/h
Temperatur: 7°C
Vindavkylning: 3°C
Daggpunkt: 6°C
Luftfuktighet: 93%
Barometer: 993 hPa
Summering: Lätt regn
Moln: Genommulet
Sikt: 10 km
Molninformation: Genommulet 335 m
2021/12/07 12:50 EGLL 071250Z AUTO 15014KT 9999 -RA OVC011 07/06 Q0993 TEMPO 16020G30KT
Lätt regn, Genommulet
Lätt regn
Genommulet
  Visa detaljer för London (Heathrow)
Avstånd från stationen: SV 1132kmLFPG - Paris (Charles de Gaulle)
Uppdaterad: 2021-12-07 16:00
 Vind från SSO
Vind: SSO 26 km/h
Temperatur: 7°C
Vindavkylning: 3°C
Daggpunkt: 4°C
Luftfuktighet: 81%
Barometer: 1001 hPa
Moln: Övervägande molnigt
Sikt: 10 km
Molninformation: Några få moln 457 m
Övervägande molnigt 1372 m
Övervägande molnigt 3048 m
2021/12/07 15:00 LFPG 071500Z 15014KT 9999 FEW015 BKN045 BKN100 07/04 Q1001 NOSIG
Övervägande molnigt
Övervägande molnigt
  Visa detaljer för Paris (Charles de Gaulle)
Avstånd från stationen: SSV 1142kmLSZH - Zürich Airport
Uppdaterad: 2021-12-07 15:50
 Vind från SO
Vind: SO 15 km/h
Temperatur: 4°C
Vindavkylning: 1°C
Daggpunkt: 1°C
Luftfuktighet: 81%
Barometer: 1011 hPa
Moln: Några få moln
Sikt: 10 km
Molninformation: Några få moln 762 m
2021/12/07 14:50 LSZH 071450Z 14008KT 9999 FEW025 04/01 Q1011 NOSIG
Några få moln
Några få moln
  Visa detaljer för Zürich Airport
Avstånd från stationen: S 1749kmLIRF - Rome Airport (Fiumicino - Leonardo da Vinci)
Uppdaterad: 2021-12-07 15:50
 Vind från NNV
Vind: NNV 13 km/h
Temperatur: 12°C
Daggpunkt: 2°C
Luftfuktighet: 51%
Barometer: 1012 hPa
Moln: Några få moln
Sikt: 10 km
Molninformation: Några få moln 1524 m
2021/12/07 14:50 LIRF 071450Z 33007KT 9999 FEW050 12/02 Q1012 NOSIG
Några få moln
Några få moln
  Visa detaljer för Rome Airport (Fiumicino - Leonardo da Vinci)
Avstånd från stationen: SO 2679kmLTAI - Antalya
Uppdaterad: 2021-12-07 15:50
 Vind från S
Vind: S 41 km/h
Temperatur: 18°C
Daggpunkt: 10°C
Luftfuktighet: 60%
Barometer: 1002 hPa
Summering: Light thunderstorm, Regn
Moln: Övervägande molnigt
Sikt: 10 km
Molninformation: Några få moln 610 m
Övervägande molnigt 914 m
2021/12/07 14:50 LTAI 071450Z 18022KT 9999 -TSRA FEW020CB BKN030 18/10 Q1002 BECMG TL1600 NSW RMK RWY18C 17021KT RWY36R 17020KT RWY18L 19018KT
Light thunderstorm, Regn, Övervägande molnigt
Light thunderstorm
Regn
Övervägande molnigt
  Visa detaljer för Antalya
Avstånd från stationen: VSV 6074kmKJFK - New Your (JFK)
Uppdaterad: 2021-12-07 15:51
 Vind från V
Vind: V 20 km/h
Temperatur: 5°C
Vindavkylning: 1°C
Daggpunkt: -6°C
Luftfuktighet: 45%
Barometer: 1022.7 hPa
Moln: Övervägande molnigt
Sikt: 16 km
Molninformation: Några få moln 1311 m
Några få moln 5791 m
Övervägande molnigt 7925 m
2021/12/07 14:51 KJFK 071451Z 27011KT 10SM FEW043 FEW190 BKN260 05/M06 A3020 RMK AO2 SLP226 T00501061 51025
Övervägande molnigt
Övervägande molnigt
  Visa detaljer för New Your (JFK)
Avstånd från stationen: VSV 8848kmKLAX - Los Angeles International Airport
Uppdaterad: 2021-12-07 15:53
 Vind från ONO
Vind: ONO 11 km/h
Temperatur: 14°C
Daggpunkt: 11°C
Luftfuktighet: 82%
Barometer: 1014.6 hPa
Summering: Lätt regn
Moln: Genommulet
Sikt: 11 km
Molninformation: Några få moln 762 m
Delvis molnigt 2743 m
Genommulet 3353 m
2021/12/07 14:53 KLAX 071453Z 07006KT 7SM -RA FEW025 SCT090 OVC110 14/11 A2996 RMK AO2 SLP143 P0000 60001 T01440111 58001
Lätt regn, Genommulet
Lätt regn
Genommulet
  Visa detaljer för Los Angeles International Airport
Avstånd från stationen: SO 4968kmOMDB - Dubai International Airport
Uppdaterad: 2021-12-07 16:00
 Vind från NNO
Vind: NNO 13 km/h
Temperatur: 25°C
Daggpunkt: 16°C
Luftfuktighet: 57%
Barometer: 1018 hPa
Summering: Klart
Sikt: mer än 10 km
2021/12/07 15:00 OMDB 071500Z 02007KT 360V070 CAVOK 25/16 Q1018 NOSIG
Klart
Klart
  Visa detaljer för Dubai International Airport
Avstånd från stationen: OSO 8570kmRJTT - Tokyo International Airport
Uppdaterad: 2021-12-07 16:00
 Vind från N
Vind: N 37 km/h
Temperatur: 11°C
Daggpunkt: 10°C
Luftfuktighet: 94%
Barometer: 1015 hPa
Summering: Regnskurar
Moln: Övervägande molnigt
Sikt: 8 km
Molninformation: Några få moln 305 m
Övervägande molnigt 366 m
Övervägande molnigt 1829 m
2021/12/07 15:00 RJTT 071500Z 35020KT 8000 SHRA FEW010 BKN012 BKN060 11/10 Q1015 TEMPO 35024G34KT 4000 RA BR FEW005 BKN008 RMK 1ST010 5CU012 7AC060 A3000
Rain showers, Övervägande molnigt
Rain showers
Övervägande molnigt
  Visa detaljer för Tokyo International Airport
Avstånd från stationen: OSO 7125kmZBAA - Peking (Beijing Capital)
Uppdaterad: 2021-12-07 16:00
 Vind från calm
Vind: Vindstilla
Temperatur: -3°C
Daggpunkt: -6°C
Luftfuktighet: 80%
Barometer: 1033 hPa
Summering: Klart
Sikt: mer än 10 km
2021/12/07 15:00 ZBAA 071500Z 00000MPS CAVOK M03/M06 Q1033 NOSIG
Klart
Klart
  Visa detaljer för Peking (Beijing Capital)
VÄDER KURIOSA -  AstronomyNeptune has at least 11 moons.